sensor_id;sensor_type;location;lat;lon;timestamp;P1;durP1;ratioP1;P2;durP2;ratioP2
72394;SDS011;60384;48.152;11.614;2023-12-04T00:02:30;13.82;;;4.90;;
72394;SDS011;60384;48.152;11.614;2023-12-04T00:05:32;6.50;;;2.97;;
72394;SDS011;60384;48.152;11.614;2023-12-04T00:08:35;13.15;;;6.90;;
72394;SDS011;60384;48.152;11.614;2023-12-04T00:11:38;14.90;;;7.22;;
72394;SDS011;60384;48.152;11.614;2023-12-04T00:14:40;15.95;;;7.25;;
72394;SDS011;60384;48.152;11.614;2023-12-04T00:20:45;3.35;;;1.65;;
72394;SDS011;60384;48.152;11.614;2023-12-04T00:23:47;11.90;;;4.82;;
72394;SDS011;60384;48.152;11.614;2023-12-04T00:26:49;14.57;;;6.35;;
72394;SDS011;60384;48.152;11.614;2023-12-04T00:29:51;17.42;;;7.13;;
72394;SDS011;60384;48.152;11.614;2023-12-04T00:32:54;13.32;;;6.18;;
72394;SDS011;60384;48.152;11.614;2023-12-04T00:35:56;13.05;;;6.38;;
72394;SDS011;60384;48.152;11.614;2023-12-04T00:38:59;10.65;;;5.13;;
72394;SDS011;60384;48.152;11.614;2023-12-04T00:45:03;13.13;;;5.45;;
72394;SDS011;60384;48.152;11.614;2023-12-04T00:48:07;6.88;;;2.72;;
72394;SDS011;60384;48.152;11.614;2023-12-04T00:51:09;12.45;;;5.10;;
72394;SDS011;60384;48.152;11.614;2023-12-04T00:54:11;8.80;;;4.03;;
72394;SDS011;60384;48.152;11.614;2023-12-04T01:00:14;13.88;;;5.80;;
72394;SDS011;60384;48.152;11.614;2023-12-04T01:03:18;10.75;;;5.03;;
72394;SDS011;60384;48.152;11.614;2023-12-04T01:06:20;4.20;;;2.28;;
72394;SDS011;60384;48.152;11.614;2023-12-04T01:09:23;9.65;;;4.10;;
72394;SDS011;60384;48.152;11.614;2023-12-04T01:15:27;14.83;;;4.93;;
72394;SDS011;60384;48.152;11.614;2023-12-04T01:18:30;15.10;;;5.32;;
72394;SDS011;60384;48.152;11.614;2023-12-04T01:21:32;11.90;;;4.53;;
72394;SDS011;60384;48.152;11.614;2023-12-04T01:24:34;10.20;;;4.10;;
72394;SDS011;60384;48.152;11.614;2023-12-04T01:27:36;14.20;;;5.15;;
72394;SDS011;60384;48.152;11.614;2023-12-04T01:30:38;9.52;;;3.95;;
72394;SDS011;60384;48.152;11.614;2023-12-04T01:33:41;8.98;;;3.70;;
72394;SDS011;60384;48.152;11.614;2023-12-04T01:36:43;12.20;;;4.68;;
72394;SDS011;60384;48.152;11.614;2023-12-04T01:39:45;13.50;;;5.82;;
72394;SDS011;60384;48.152;11.614;2023-12-04T01:45:49;8.80;;;3.95;;
72394;SDS011;60384;48.152;11.614;2023-12-04T01:48:56;11.85;;;5.10;;
72394;SDS011;60384;48.152;11.614;2023-12-04T01:51:58;14.23;;;4.82;;
72394;SDS011;60384;48.152;11.614;2023-12-04T01:55:00;10.75;;;4.78;;
72394;SDS011;60384;48.152;11.614;2023-12-04T01:58:02;12.57;;;4.80;;
72394;SDS011;60384;48.152;11.614;2023-12-04T02:04:08;8.43;;;4.18;;
72394;SDS011;60384;48.152;11.614;2023-12-04T02:07:10;3.10;;;1.55;;
72394;SDS011;60384;48.152;11.614;2023-12-04T02:10:12;3.47;;;0.88;;
72394;SDS011;60384;48.152;11.614;2023-12-04T02:13:14;10.15;;;4.82;;
72394;SDS011;60384;48.152;11.614;2023-12-04T02:16:17;14.48;;;5.70;;
72394;SDS011;60384;48.152;11.614;2023-12-04T02:19:22;11.77;;;5.13;;
72394;SDS011;60384;48.152;11.614;2023-12-04T02:22:25;14.35;;;6.35;;
72394;SDS011;60384;48.152;11.614;2023-12-04T02:25:29;14.68;;;5.82;;
72394;SDS011;60384;48.152;11.614;2023-12-04T02:28:32;16.15;;;6.80;;
72394;SDS011;60384;48.152;11.614;2023-12-04T02:31:37;9.25;;;4.22;;
72394;SDS011;60384;48.152;11.614;2023-12-04T02:34:42;12.75;;;6.07;;
72394;SDS011;60384;48.152;11.614;2023-12-04T02:37:46;10.93;;;5.20;;
72394;SDS011;60384;48.152;11.614;2023-12-04T02:40:50;15.20;;;6.65;;
72394;SDS011;60384;48.152;11.614;2023-12-04T02:43:52;14.80;;;6.43;;
72394;SDS011;60384;48.152;11.614;2023-12-04T02:49:56;9.48;;;2.97;;
72394;SDS011;60384;48.152;11.614;2023-12-04T02:52:58;15.25;;;7.38;;
72394;SDS011;60384;48.152;11.614;2023-12-04T02:56:01;10.18;;;5.22;;
72394;SDS011;60384;48.152;11.614;2023-12-04T02:59:03;9.93;;;4.30;;
72394;SDS011;60384;48.152;11.614;2023-12-04T03:05:07;6.82;;;3.15;;
72394;SDS011;60384;48.152;11.614;2023-12-04T03:08:10;13.40;;;5.68;;
72394;SDS011;60384;48.152;11.614;2023-12-04T03:11:13;11.32;;;4.88;;
72394;SDS011;60384;48.152;11.614;2023-12-04T03:14:15;14.65;;;7.10;;
72394;SDS011;60384;48.152;11.614;2023-12-04T03:20:19;9.07;;;4.13;;
72394;SDS011;60384;48.152;11.614;2023-12-04T03:26:24;11.07;;;4.40;;
72394;SDS011;60384;48.152;11.614;2023-12-04T03:29:26;11.15;;;5.63;;
72394;SDS011;60384;48.152;11.614;2023-12-04T03:32:28;11.63;;;4.82;;
72394;SDS011;60384;48.152;11.614;2023-12-04T03:35:30;2.33;;;0.80;;
72394;SDS011;60384;48.152;11.614;2023-12-04T03:38:32;14.43;;;6.40;;
72394;SDS011;60384;48.152;11.614;2023-12-04T03:44:37;2.28;;;0.75;;
72394;SDS011;60384;48.152;11.614;2023-12-04T03:50:41;10.20;;;3.83;;
72394;SDS011;60384;48.152;11.614;2023-12-04T03:56:46;9.30;;;4.93;;
72394;SDS011;60384;48.152;11.614;2023-12-04T03:59:48;13.35;;;5.22;;
72394;SDS011;60384;48.152;11.614;2023-12-04T04:05:52;3.20;;;2.17;;
72394;SDS011;60384;48.152;11.614;2023-12-04T04:11:57;3.28;;;2.13;;
72394;SDS011;60384;48.152;11.614;2023-12-04T04:14:59;10.35;;;3.83;;
72394;SDS011;60384;48.152;11.614;2023-12-04T04:21:02;12.27;;;5.13;;
72394;SDS011;60384;48.152;11.614;2023-12-04T04:24:05;13.38;;;5.47;;
72394;SDS011;60384;48.152;11.614;2023-12-04T04:27:08;10.10;;;4.15;;
72394;SDS011;60384;48.152;11.614;2023-12-04T04:30:10;9.95;;;2.88;;
72394;SDS011;60384;48.152;11.614;2023-12-04T04:33:13;13.85;;;5.82;;
72394;SDS011;60384;48.152;11.614;2023-12-04T04:36:17;4.60;;;1.73;;
72394;SDS011;60384;48.152;11.614;2023-12-04T04:42:22;7.95;;;4.18;;
72394;SDS011;60384;48.152;11.614;2023-12-04T04:45:24;7.07;;;3.53;;
72394;SDS011;60384;48.152;11.614;2023-12-04T04:48:26;5.45;;;2.22;;
72394;SDS011;60384;48.152;11.614;2023-12-04T04:54:30;6.20;;;2.80;;
72394;SDS011;60384;48.152;11.614;2023-12-04T04:57:34;9.27;;;4.07;;
72394;SDS011;60384;48.152;11.614;2023-12-04T05:00:36;8.75;;;3.42;;
72394;SDS011;60384;48.152;11.614;2023-12-04T05:06:39;8.38;;;3.47;;
72394;SDS011;60384;48.152;11.614;2023-12-04T05:09:42;14.35;;;5.30;;
72394;SDS011;60384;48.152;11.614;2023-12-04T05:12:45;9.25;;;4.18;;
72394;SDS011;60384;48.152;11.614;2023-12-04T05:15:47;6.47;;;3.45;;
72394;SDS011;60384;48.152;11.614;2023-12-04T05:18:49;8.52;;;3.80;;
72394;SDS011;60384;48.152;11.614;2023-12-04T05:21:51;15.55;;;5.57;;
72394;SDS011;60384;48.152;11.614;2023-12-04T05:27:56;14.68;;;6.50;;
72394;SDS011;60384;48.152;11.614;2023-12-04T05:30:58;11.27;;;5.13;;
72394;SDS011;60384;48.152;11.614;2023-12-04T05:34:00;14.02;;;5.70;;
72394;SDS011;60384;48.152;11.614;2023-12-04T05:40:04;8.55;;;2.97;;
72394;SDS011;60384;48.152;11.614;2023-12-04T05:43:08;6.32;;;2.88;;
72394;SDS011;60384;48.152;11.614;2023-12-04T05:46:11;11.57;;;5.00;;
72394;SDS011;60384;48.152;11.614;2023-12-04T05:49:13;10.68;;;4.78;;
72394;SDS011;60384;48.152;11.614;2023-12-04T05:55:17;14.73;;;6.30;;
72394;SDS011;60384;48.152;11.614;2023-12-04T05:58:21;11.38;;;4.03;;
72394;SDS011;60384;48.152;11.614;2023-12-04T06:01:23;11.30;;;5.15;;
72394;SDS011;60384;48.152;11.614;2023-12-04T06:07:27;14.43;;;5.75;;
72394;SDS011;60384;48.152;11.614;2023-12-04T06:13:32;12.60;;;5.15;;
72394;SDS011;60384;48.152;11.614;2023-12-04T06:16:34;9.50;;;4.60;;
72394;SDS011;60384;48.152;11.614;2023-12-04T06:19:36;13.55;;;4.85;;
72394;SDS011;60384;48.152;11.614;2023-12-04T06:25:41;14.10;;;5.28;;
72394;SDS011;60384;48.152;11.614;2023-12-04T06:28:45;5.25;;;3.13;;
72394;SDS011;60384;48.152;11.614;2023-12-04T06:31:47;9.15;;;4.30;;
72394;SDS011;60384;48.152;11.614;2023-12-04T06:34:50;15.48;;;6.57;;
72394;SDS011;60384;48.152;11.614;2023-12-04T06:37:52;11.30;;;4.90;;
72394;SDS011;60384;48.152;11.614;2023-12-04T06:40:55;12.20;;;5.78;;
72394;SDS011;60384;48.152;11.614;2023-12-04T06:43:59;13.10;;;5.95;;
72394;SDS011;60384;48.152;11.614;2023-12-04T06:47:02;11.15;;;4.68;;
72394;SDS011;60384;48.152;11.614;2023-12-04T06:50:05;11.40;;;4.80;;
72394;SDS011;60384;48.152;11.614;2023-12-04T06:53:07;9.73;;;3.45;;
72394;SDS011;60384;48.152;11.614;2023-12-04T06:59:13;11.77;;;5.45;;
72394;SDS011;60384;48.152;11.614;2023-12-04T07:02:15;12.35;;;4.72;;
72394;SDS011;60384;48.152;11.614;2023-12-04T07:05:16;12.85;;;5.28;;
72394;SDS011;60384;48.152;11.614;2023-12-04T07:08:19;14.25;;;6.13;;
72394;SDS011;60384;48.152;11.614;2023-12-04T07:14:24;6.45;;;3.55;;
72394;SDS011;60384;48.152;11.614;2023-12-04T07:17:26;7.00;;;2.97;;
72394;SDS011;60384;48.152;11.614;2023-12-04T07:20:29;11.38;;;5.97;;
72394;SDS011;60384;48.152;11.614;2023-12-04T07:23:31;15.00;;;5.97;;
72394;SDS011;60384;48.152;11.614;2023-12-04T07:29:36;13.02;;;6.32;;
72394;SDS011;60384;48.152;11.614;2023-12-04T07:32:40;0.00;;;0.00;;
72394;SDS011;60384;48.152;11.614;2023-12-04T07:38:43;10.50;;;4.47;;
72394;SDS011;60384;48.152;11.614;2023-12-04T07:44:48;11.82;;;4.50;;
72394;SDS011;60384;48.152;11.614;2023-12-04T07:47:51;10.43;;;3.63;;
72394;SDS011;60384;48.152;11.614;2023-12-04T07:53:54;10.82;;;5.47;;
72394;SDS011;60384;48.152;11.614;2023-12-04T07:56:57;13.57;;;5.40;;
72394;SDS011;60384;48.152;11.614;2023-12-04T08:00:00;10.30;;;5.32;;
72394;SDS011;60384;48.152;11.614;2023-12-04T08:03:04;14.32;;;5.45;;
72394;SDS011;60384;48.152;11.614;2023-12-04T08:06:07;11.27;;;5.32;;
72394;SDS011;60384;48.152;11.614;2023-12-04T08:09:09;16.55;;;5.95;;
72394;SDS011;60384;48.152;11.614;2023-12-04T08:12:11;11.23;;;5.68;;
72394;SDS011;60384;48.152;11.614;2023-12-04T08:15:14;11.18;;;5.13;;
72394;SDS011;60384;48.152;11.614;2023-12-04T08:18:16;12.40;;;5.63;;
72394;SDS011;60384;48.152;11.614;2023-12-04T08:21:21;13.18;;;5.47;;
72394;SDS011;60384;48.152;11.614;2023-12-04T08:24:23;14.30;;;6.03;;
72394;SDS011;60384;48.152;11.614;2023-12-04T08:27:26;16.85;;;7.43;;
72394;SDS011;60384;48.152;11.614;2023-12-04T08:30:30;11.93;;;5.82;;
72394;SDS011;60384;48.152;11.614;2023-12-04T08:33:32;11.40;;;5.20;;
72394;SDS011;60384;48.152;11.614;2023-12-04T08:36:35;12.75;;;5.95;;
72394;SDS011;60384;48.152;11.614;2023-12-04T08:39:36;13.50;;;5.72;;
72394;SDS011;60384;48.152;11.614;2023-12-04T08:42:38;12.60;;;5.38;;
72394;SDS011;60384;48.152;11.614;2023-12-04T08:45:42;12.73;;;5.70;;
72394;SDS011;60384;48.152;11.614;2023-12-04T08:48:44;13.52;;;6.13;;
72394;SDS011;60384;48.152;11.614;2023-12-04T08:51:46;15.35;;;7.15;;
72394;SDS011;60384;48.152;11.614;2023-12-04T08:57:50;10.43;;;5.28;;
72394;SDS011;60384;48.152;11.614;2023-12-04T09:00:53;12.38;;;6.43;;
72394;SDS011;60384;48.152;11.614;2023-12-04T09:03:57;14.48;;;6.10;;
72394;SDS011;60384;48.152;11.614;2023-12-04T09:06:59;9.63;;;5.53;;
72394;SDS011;60384;48.152;11.614;2023-12-04T09:10:01;9.77;;;4.55;;
72394;SDS011;60384;48.152;11.614;2023-12-04T09:13:03;11.45;;;5.63;;
72394;SDS011;60384;48.152;11.614;2023-12-04T09:16:07;12.98;;;6.15;;
72394;SDS011;60384;48.152;11.614;2023-12-04T09:19:09;17.65;;;7.82;;
72394;SDS011;60384;48.152;11.614;2023-12-04T09:22:11;15.95;;;7.43;;
72394;SDS011;60384;48.152;11.614;2023-12-04T09:25:13;12.68;;;6.28;;
72394;SDS011;60384;48.152;11.614;2023-12-04T09:28:16;17.75;;;6.57;;
72394;SDS011;60384;48.152;11.614;2023-12-04T09:31:19;15.15;;;7.07;;
72394;SDS011;60384;48.152;11.614;2023-12-04T09:34:21;15.27;;;6.97;;
72394;SDS011;60384;48.152;11.614;2023-12-04T09:37:23;12.82;;;6.55;;
72394;SDS011;60384;48.152;11.614;2023-12-04T09:40:25;15.68;;;7.00;;
72394;SDS011;60384;48.152;11.614;2023-12-04T09:43:28;15.35;;;7.60;;
72394;SDS011;60384;48.152;11.614;2023-12-04T09:46:33;14.43;;;6.68;;
72394;SDS011;60384;48.152;11.614;2023-12-04T09:49:36;12.88;;;6.55;;
72394;SDS011;60384;48.152;11.614;2023-12-04T09:52:39;12.35;;;6.40;;
72394;SDS011;60384;48.152;11.614;2023-12-04T09:58:43;15.73;;;5.93;;
72394;SDS011;60384;48.152;11.614;2023-12-04T10:01:48;11.77;;;5.93;;
72394;SDS011;60384;48.152;11.614;2023-12-04T10:04:51;18.30;;;6.90;;
72394;SDS011;60384;48.152;11.614;2023-12-04T10:07:54;6.93;;;3.15;;
72394;SDS011;60384;48.152;11.614;2023-12-04T10:10:55;13.48;;;6.65;;
72394;SDS011;60384;48.152;11.614;2023-12-04T10:13:59;16.90;;;7.72;;
72394;SDS011;60384;48.152;11.614;2023-12-04T10:17:11;16.55;;;6.75;;
72394;SDS011;60384;48.152;11.614;2023-12-04T10:20:15;14.98;;;7.30;;
72394;SDS011;60384;48.152;11.614;2023-12-04T10:23:18;12.95;;;6.43;;
72394;SDS011;60384;48.152;11.614;2023-12-04T10:26:20;16.35;;;6.72;;
72394;SDS011;60384;48.152;11.614;2023-12-04T10:29:23;13.13;;;6.75;;
72394;SDS011;60384;48.152;11.614;2023-12-04T10:32:29;7.22;;;3.90;;
72394;SDS011;60384;48.152;11.614;2023-12-04T10:35:31;8.38;;;4.13;;
72394;SDS011;60384;48.152;11.614;2023-12-04T10:38:36;16.40;;;7.30;;
72394;SDS011;60384;48.152;11.614;2023-12-04T10:41:38;14.75;;;7.18;;
72394;SDS011;60384;48.152;11.614;2023-12-04T10:44:40;15.48;;;7.38;;
72394;SDS011;60384;48.152;11.614;2023-12-04T10:47:43;12.93;;;6.35;;
72394;SDS011;60384;48.152;11.614;2023-12-04T10:50:47;15.27;;;6.82;;
72394;SDS011;60384;48.152;11.614;2023-12-04T10:53:50;16.17;;;7.03;;
72394;SDS011;60384;48.152;11.614;2023-12-04T10:56:52;18.65;;;7.75;;
72394;SDS011;60384;48.152;11.614;2023-12-04T11:00:01;13.23;;;5.47;;
72394;SDS011;60384;48.152;11.614;2023-12-04T11:03:07;17.77;;;6.82;;
72394;SDS011;60384;48.152;11.614;2023-12-04T11:06:10;17.58;;;8.35;;
72394;SDS011;60384;48.152;11.614;2023-12-04T11:09:19;19.70;;;9.50;;
72394;SDS011;60384;48.152;11.614;2023-12-04T11:12:26;14.90;;;8.65;;
72394;SDS011;60384;48.152;11.614;2023-12-04T11:15:31;17.77;;;9.13;;
72394;SDS011;60384;48.152;11.614;2023-12-04T11:18:38;20.77;;;9.13;;
72394;SDS011;60384;48.152;11.614;2023-12-04T11:21:52;16.38;;;8.40;;
72394;SDS011;60384;48.152;11.614;2023-12-04T11:24:55;18.15;;;9.48;;
72394;SDS011;60384;48.152;11.614;2023-12-04T11:27:58;19.48;;;8.98;;
72394;SDS011;60384;48.152;11.614;2023-12-04T11:31:00;19.67;;;9.38;;
72394;SDS011;60384;48.152;11.614;2023-12-04T11:34:04;18.70;;;10.20;;
72394;SDS011;60384;48.152;11.614;2023-12-04T11:37:06;17.05;;;8.57;;
72394;SDS011;60384;48.152;11.614;2023-12-04T11:40:11;15.55;;;6.88;;
72394;SDS011;60384;48.152;11.614;2023-12-04T11:43:27;23.15;;;9.00;;
72394;SDS011;60384;48.152;11.614;2023-12-04T11:46:30;19.17;;;9.32;;
72394;SDS011;60384;48.152;11.614;2023-12-04T11:49:34;20.52;;;9.77;;
72394;SDS011;60384;48.152;11.614;2023-12-04T11:52:36;13.80;;;6.30;;
72394;SDS011;60384;48.152;11.614;2023-12-04T11:55:39;21.58;;;9.48;;
72394;SDS011;60384;48.152;11.614;2023-12-04T11:58:42;17.02;;;8.57;;
72394;SDS011;60384;48.152;11.614;2023-12-04T12:01:44;18.60;;;9.18;;
72394;SDS011;60384;48.152;11.614;2023-12-04T12:04:54;18.83;;;8.55;;
72394;SDS011;60384;48.152;11.614;2023-12-04T12:08:00;15.50;;;8.35;;
72394;SDS011;60384;48.152;11.614;2023-12-04T12:11:03;18.35;;;8.85;;
72394;SDS011;60384;48.152;11.614;2023-12-04T12:14:06;11.63;;;5.72;;
72394;SDS011;60384;48.152;11.614;2023-12-04T12:17:08;17.85;;;9.75;;
72394;SDS011;60384;48.152;11.614;2023-12-04T12:20:13;12.88;;;5.40;;
72394;SDS011;60384;48.152;11.614;2023-12-04T12:23:16;2.63;;;0.63;;
72394;SDS011;60384;48.152;11.614;2023-12-04T12:26:18;29.30;;;13.32;;
72394;SDS011;60384;48.152;11.614;2023-12-04T12:29:20;20.38;;;10.35;;
72394;SDS011;60384;48.152;11.614;2023-12-04T12:32:22;24.50;;;10.25;;
72394;SDS011;60384;48.152;11.614;2023-12-04T12:35:27;25.50;;;11.68;;
72394;SDS011;60384;48.152;11.614;2023-12-04T12:38:29;25.65;;;11.60;;
72394;SDS011;60384;48.152;11.614;2023-12-04T12:41:34;19.55;;;10.77;;
72394;SDS011;60384;48.152;11.614;2023-12-04T12:44:37;22.08;;;10.77;;
72394;SDS011;60384;48.152;11.614;2023-12-04T12:47:41;25.67;;;11.90;;
72394;SDS011;60384;48.152;11.614;2023-12-04T12:50:45;20.27;;;9.07;;
72394;SDS011;60384;48.152;11.614;2023-12-04T12:53:48;29.38;;;12.05;;
72394;SDS011;60384;48.152;11.614;2023-12-04T12:56:50;23.70;;;12.10;;
72394;SDS011;60384;48.152;11.614;2023-12-04T12:59:52;22.95;;;12.02;;
72394;SDS011;60384;48.152;11.614;2023-12-04T13:02:54;24.88;;;11.50;;
72394;SDS011;60384;48.152;11.614;2023-12-04T13:05:57;24.65;;;12.02;;
72394;SDS011;60384;48.152;11.614;2023-12-04T13:08:59;24.40;;;12.38;;
72394;SDS011;60384;48.152;11.614;2023-12-04T13:12:01;24.40;;;10.30;;
72394;SDS011;60384;48.152;11.614;2023-12-04T13:15:04;25.95;;;12.80;;
72394;SDS011;60384;48.152;11.614;2023-12-04T13:18:07;13.48;;;7.63;;
72394;SDS011;60384;48.152;11.614;2023-12-04T13:21:11;26.05;;;13.00;;
72394;SDS011;60384;48.152;11.614;2023-12-04T13:24:13;22.85;;;11.82;;
72394;SDS011;60384;48.152;11.614;2023-12-04T13:30:17;25.02;;;12.63;;
72394;SDS011;60384;48.152;11.614;2023-12-04T13:33:21;23.17;;;12.40;;
72394;SDS011;60384;48.152;11.614;2023-12-04T13:36:25;14.05;;;9.93;;
72394;SDS011;60384;48.152;11.614;2023-12-04T13:39:27;21.95;;;11.35;;
72394;SDS011;60384;48.152;11.614;2023-12-04T13:42:47;22.88;;;12.18;;
72394;SDS011;60384;48.152;11.614;2023-12-04T13:46:06;23.23;;;11.70;;
72394;SDS011;60384;48.152;11.614;2023-12-04T13:49:10;21.17;;;10.68;;
72394;SDS011;60384;48.152;11.614;2023-12-04T13:52:14;21.20;;;11.15;;
72394;SDS011;60384;48.152;11.614;2023-12-04T13:55:15;21.27;;;10.38;;
72394;SDS011;60384;48.152;11.614;2023-12-04T13:58:20;22.00;;;10.10;;
72394;SDS011;60384;48.152;11.614;2023-12-04T14:01:38;22.17;;;10.15;;
72394;SDS011;60384;48.152;11.614;2023-12-04T14:04:42;19.48;;;10.13;;
72394;SDS011;60384;48.152;11.614;2023-12-04T14:07:45;19.77;;;9.80;;
72394;SDS011;60384;48.152;11.614;2023-12-04T14:10:48;17.92;;;9.88;;
72394;SDS011;60384;48.152;11.614;2023-12-04T14:13:50;23.35;;;11.82;;
72394;SDS011;60384;48.152;11.614;2023-12-04T14:16:52;24.00;;;10.43;;
72394;SDS011;60384;48.152;11.614;2023-12-04T14:19:54;20.00;;;10.18;;
72394;SDS011;60384;48.152;11.614;2023-12-04T14:22:57;21.40;;;11.00;;
72394;SDS011;60384;48.152;11.614;2023-12-04T14:25:59;21.17;;;10.40;;
72394;SDS011;60384;48.152;11.614;2023-12-04T14:29:01;25.63;;;12.18;;
72394;SDS011;60384;48.152;11.614;2023-12-04T14:35:08;19.83;;;9.25;;
72394;SDS011;60384;48.152;11.614;2023-12-04T14:38:11;21.92;;;11.00;;
72394;SDS011;60384;48.152;11.614;2023-12-04T14:41:13;24.95;;;11.48;;
72394;SDS011;60384;48.152;11.614;2023-12-04T14:44:15;21.65;;;11.23;;
72394;SDS011;60384;48.152;11.614;2023-12-04T14:47:17;22.33;;;10.48;;
72394;SDS011;60384;48.152;11.614;2023-12-04T14:50:19;23.45;;;12.00;;
72394;SDS011;60384;48.152;11.614;2023-12-04T14:53:22;23.40;;;11.55;;
72394;SDS011;60384;48.152;11.614;2023-12-04T14:56:31;20.30;;;10.60;;
72394;SDS011;60384;48.152;11.614;2023-12-04T14:59:50;22.85;;;10.55;;
72394;SDS011;60384;48.152;11.614;2023-12-04T15:03:11;23.85;;;11.77;;
72394;SDS011;60384;48.152;11.614;2023-12-04T15:06:46;19.98;;;10.73;;
72394;SDS011;60384;48.152;11.614;2023-12-04T15:10:17;15.38;;;8.40;;
72394;SDS011;60384;48.152;11.614;2023-12-04T15:14:00;20.00;;;11.40;;
72394;SDS011;60384;48.152;11.614;2023-12-04T15:17:10;24.77;;;10.32;;
72394;SDS011;60384;48.152;11.614;2023-12-04T15:20:18;25.52;;;11.85;;
72394;SDS011;60384;48.152;11.614;2023-12-04T15:23:33;25.25;;;11.90;;
72394;SDS011;60384;48.152;11.614;2023-12-04T15:26:37;24.60;;;11.45;;
72394;SDS011;60384;48.152;11.614;2023-12-04T15:29:38;21.92;;;10.60;;
72394;SDS011;60384;48.152;11.614;2023-12-04T15:32:41;24.95;;;11.15;;
72394;SDS011;60384;48.152;11.614;2023-12-04T15:35:43;17.80;;;9.63;;
72394;SDS011;60384;48.152;11.614;2023-12-04T15:38:45;8.60;;;4.05;;
72394;SDS011;60384;48.152;11.614;2023-12-04T15:41:48;23.52;;;11.05;;
72394;SDS011;60384;48.152;11.614;2023-12-04T15:44:49;21.33;;;10.73;;
72394;SDS011;60384;48.152;11.614;2023-12-04T15:47:51;22.42;;;11.25;;
72394;SDS011;60384;48.152;11.614;2023-12-04T15:53:55;19.13;;;9.75;;
72394;SDS011;60384;48.152;11.614;2023-12-04T15:56:57;23.38;;;11.23;;
72394;SDS011;60384;48.152;11.614;2023-12-04T16:00:01;17.75;;;9.68;;
72394;SDS011;60384;48.152;11.614;2023-12-04T16:03:12;22.23;;;11.18;;
72394;SDS011;60384;48.152;11.614;2023-12-04T16:06:14;18.95;;;9.38;;
72394;SDS011;60384;48.152;11.614;2023-12-04T16:09:16;23.83;;;11.07;;
72394;SDS011;60384;48.152;11.614;2023-12-04T16:15:22;20.98;;;10.10;;
72394;SDS011;60384;48.152;11.614;2023-12-04T16:18:24;21.33;;;10.13;;
72394;SDS011;60384;48.152;11.614;2023-12-04T16:21:26;23.52;;;11.15;;
72394;SDS011;60384;48.152;11.614;2023-12-04T16:24:28;17.55;;;9.10;;
72394;SDS011;60384;48.152;11.614;2023-12-04T16:30:33;20.63;;;10.50;;
72394;SDS011;60384;48.152;11.614;2023-12-04T16:33:35;23.15;;;10.85;;
72394;SDS011;60384;48.152;11.614;2023-12-04T16:36:37;18.83;;;9.63;;
72394;SDS011;60384;48.152;11.614;2023-12-04T16:39:39;23.60;;;10.85;;
72394;SDS011;60384;48.152;11.614;2023-12-04T16:42:44;16.02;;;7.45;;
72394;SDS011;60384;48.152;11.614;2023-12-04T16:45:46;21.25;;;11.82;;
72394;SDS011;60384;48.152;11.614;2023-12-04T16:48:48;26.10;;;11.85;;
72394;SDS011;60384;48.152;11.614;2023-12-04T16:51:50;20.52;;;10.73;;
72394;SDS011;60384;48.152;11.614;2023-12-04T16:54:53;26.60;;;13.10;;
72394;SDS011;60384;48.152;11.614;2023-12-04T16:57:56;21.35;;;11.10;;
72394;SDS011;60384;48.152;11.614;2023-12-04T17:01:03;25.63;;;12.20;;
72394;SDS011;60384;48.152;11.614;2023-12-04T17:04:05;31.27;;;12.85;;
72394;SDS011;60384;48.152;11.614;2023-12-04T17:07:09;23.05;;;12.20;;
72394;SDS011;60384;48.152;11.614;2023-12-04T17:10:11;28.83;;;12.20;;
72394;SDS011;60384;48.152;11.614;2023-12-04T17:13:15;26.05;;;12.95;;
72394;SDS011;60384;48.152;11.614;2023-12-04T17:16:17;26.40;;;11.18;;
72394;SDS011;60384;48.152;11.614;2023-12-04T17:22:21;14.75;;;6.03;;
72394;SDS011;60384;48.152;11.614;2023-12-04T17:25:25;20.35;;;12.15;;
72394;SDS011;60384;48.152;11.614;2023-12-04T17:28:30;24.58;;;12.30;;
72394;SDS011;60384;48.152;11.614;2023-12-04T17:31:32;24.67;;;12.40;;
72394;SDS011;60384;48.152;11.614;2023-12-04T17:37:36;21.52;;;10.35;;
72394;SDS011;60384;48.152;11.614;2023-12-04T17:40:38;21.38;;;10.82;;
72394;SDS011;60384;48.152;11.614;2023-12-04T17:43:41;21.88;;;11.10;;
72394;SDS011;60384;48.152;11.614;2023-12-04T17:46:43;10.55;;;4.45;;
72394;SDS011;60384;48.152;11.614;2023-12-04T17:49:45;22.15;;;11.85;;
72394;SDS011;60384;48.152;11.614;2023-12-04T17:52:47;22.98;;;10.38;;
72394;SDS011;60384;48.152;11.614;2023-12-04T17:55:50;22.77;;;12.18;;
72394;SDS011;60384;48.152;11.614;2023-12-04T17:58:53;26.85;;;10.50;;
72394;SDS011;60384;48.152;11.614;2023-12-04T18:01:55;21.92;;;12.23;;
72394;SDS011;60384;48.152;11.614;2023-12-04T18:04:57;22.95;;;10.43;;
72394;SDS011;60384;48.152;11.614;2023-12-04T18:07:59;26.52;;;12.38;;
72394;SDS011;60384;48.152;11.614;2023-12-04T18:11:02;24.95;;;12.30;;
72394;SDS011;60384;48.152;11.614;2023-12-04T18:14:07;22.52;;;11.52;;
72394;SDS011;60384;48.152;11.614;2023-12-04T18:17:09;26.65;;;12.65;;
72394;SDS011;60384;48.152;11.614;2023-12-04T18:20:12;27.38;;;13.63;;
72394;SDS011;60384;48.152;11.614;2023-12-04T18:23:15;22.45;;;12.00;;
72394;SDS011;60384;48.152;11.614;2023-12-04T18:29:21;23.25;;;12.15;;
72394;SDS011;60384;48.152;11.614;2023-12-04T18:32:24;12.73;;;5.55;;
72394;SDS011;60384;48.152;11.614;2023-12-04T18:35:26;25.98;;;12.02;;
72394;SDS011;60384;48.152;11.614;2023-12-04T18:38:31;27.95;;;14.90;;
72394;SDS011;60384;48.152;11.614;2023-12-04T18:41:40;26.85;;;13.23;;
72394;SDS011;60384;48.152;11.614;2023-12-04T18:44:50;26.10;;;12.50;;
72394;SDS011;60384;48.152;11.614;2023-12-04T18:47:53;29.67;;;13.90;;
72394;SDS011;60384;48.152;11.614;2023-12-04T18:51:00;23.15;;;12.25;;
72394;SDS011;60384;48.152;11.614;2023-12-04T18:54:03;22.60;;;12.85;;
72394;SDS011;60384;48.152;11.614;2023-12-04T18:57:07;23.85;;;12.40;;
72394;SDS011;60384;48.152;11.614;2023-12-04T19:00:13;26.90;;;14.38;;
72394;SDS011;60384;48.152;11.614;2023-12-04T19:03:16;29.77;;;14.88;;
72394;SDS011;60384;48.152;11.614;2023-12-04T19:06:18;30.30;;;15.32;;
72394;SDS011;60384;48.152;11.614;2023-12-04T19:09:20;28.38;;;14.52;;
72394;SDS011;60384;48.152;11.614;2023-12-04T19:12:22;29.85;;;16.08;;
72394;SDS011;60384;48.152;11.614;2023-12-04T19:15:26;31.23;;;16.55;;
72394;SDS011;60384;48.152;11.614;2023-12-04T19:18:31;35.25;;;16.70;;
72394;SDS011;60384;48.152;11.614;2023-12-04T19:21:34;32.88;;;17.00;;
72394;SDS011;60384;48.152;11.614;2023-12-04T19:27:38;33.65;;;17.02;;
72394;SDS011;60384;48.152;11.614;2023-12-04T19:30:47;33.45;;;16.92;;
72394;SDS011;60384;48.152;11.614;2023-12-04T19:33:49;30.83;;;17.10;;
72394;SDS011;60384;48.152;11.614;2023-12-04T19:36:52;35.17;;;19.52;;
72394;SDS011;60384;48.152;11.614;2023-12-04T19:42:56;32.53;;;16.02;;
72394;SDS011;60384;48.152;11.614;2023-12-04T19:46:07;31.98;;;16.55;;
72394;SDS011;60384;48.152;11.614;2023-12-04T19:49:09;25.08;;;12.88;;
72394;SDS011;60384;48.152;11.614;2023-12-04T19:55:13;22.08;;;11.75;;
72394;SDS011;60384;48.152;11.614;2023-12-04T20:01:25;33.17;;;17.45;;
72394;SDS011;60384;48.152;11.614;2023-12-04T20:04:28;42.83;;;20.83;;
72394;SDS011;60384;48.152;11.614;2023-12-04T20:07:31;36.55;;;20.23;;